sensor_id;sensor_type;location;lat;lon;timestamp;pressure;altitude;pressure_sealevel;temperature;humidity
62418;BME280;48456;54.242;10.280;2023-07-29T00:02:25;100518.94;;;15.14;100.00
62418;BME280;48456;54.242;10.280;2023-07-29T00:04:52;100514.59;;;15.11;100.00
62418;BME280;48456;54.242;10.280;2023-07-29T00:07:19;100510.38;;;15.04;100.00
62418;BME280;48456;54.242;10.280;2023-07-29T00:09:45;100514.06;;;14.98;100.00
62418;BME280;48456;54.242;10.280;2023-07-29T00:12:11;100517.75;;;14.92;100.00
62418;BME280;48456;54.242;10.280;2023-07-29T00:14:38;100515.13;;;14.91;100.00
62418;BME280;48456;54.242;10.280;2023-07-29T00:17:04;100504.56;;;14.88;100.00
62418;BME280;48456;54.242;10.280;2023-07-29T00:19:31;100505.44;;;14.88;100.00
62418;BME280;48456;54.242;10.280;2023-07-29T00:21:58;100502.00;;;14.85;100.00
62418;BME280;48456;54.242;10.280;2023-07-29T00:24:24;100506.53;;;14.81;100.00
62418;BME280;48456;54.242;10.280;2023-07-29T00:26:51;100500.41;;;14.76;100.00
62418;BME280;48456;54.242;10.280;2023-07-29T00:29:17;100506.81;;;14.68;100.00
62418;BME280;48456;54.242;10.280;2023-07-29T00:31:43;100510.47;;;14.64;100.00
62418;BME280;48456;54.242;10.280;2023-07-29T00:34:10;100500.78;;;14.62;100.00
62418;BME280;48456;54.242;10.280;2023-07-29T00:36:36;100495.53;;;14.59;100.00
62418;BME280;48456;54.242;10.280;2023-07-29T00:39:03;100494.75;;;14.55;100.00
62418;BME280;48456;54.242;10.280;2023-07-29T00:41:30;100502.69;;;14.57;100.00
62418;BME280;48456;54.242;10.280;2023-07-29T00:43:56;100499.09;;;14.58;100.00
62418;BME280;48456;54.242;10.280;2023-07-29T00:46:22;100503.56;;;14.57;100.00
62418;BME280;48456;54.242;10.280;2023-07-29T00:48:49;100490.19;;;14.59;100.00
62418;BME280;48456;54.242;10.280;2023-07-29T00:51:16;100493.69;;;14.62;100.00
62418;BME280;48456;54.242;10.280;2023-07-29T00:53:42;100495.31;;;14.68;100.00
62418;BME280;48456;54.242;10.280;2023-07-29T00:56:09;100492.50;;;14.73;100.00
62418;BME280;48456;54.242;10.280;2023-07-29T00:58:35;100471.13;;;14.77;100.00
62418;BME280;48456;54.242;10.280;2023-07-29T01:01:01;100457.81;;;14.77;100.00
62418;BME280;48456;54.242;10.280;2023-07-29T01:03:28;100457.84;;;14.74;100.00
62418;BME280;48456;54.242;10.280;2023-07-29T01:08:55;100460.47;;;14.76;100.00
62418;BME280;48456;54.242;10.280;2023-07-29T01:16:39;100443.28;;;14.89;100.00
62418;BME280;48456;54.242;10.280;2023-07-29T01:19:07;100444.97;;;14.92;100.00
62418;BME280;48456;54.242;10.280;2023-07-29T01:21:39;100438.00;;;14.88;100.00
62418;BME280;48456;54.242;10.280;2023-07-29T01:24:07;100441.66;;;14.84;100.00
62418;BME280;48456;54.242;10.280;2023-07-29T01:26:33;100436.47;;;14.79;100.00
62418;BME280;48456;54.242;10.280;2023-07-29T01:29:00;100434.69;;;14.78;100.00
62418;BME280;48456;54.242;10.280;2023-07-29T01:31:29;100438.28;;;14.75;100.00
62418;BME280;48456;54.242;10.280;2023-07-29T01:33:58;100441.88;;;14.74;100.00
62418;BME280;48456;54.242;10.280;2023-07-29T01:36:26;100444.53;;;14.74;100.00
62418;BME280;48456;54.242;10.280;2023-07-29T01:38:53;100452.44;;;14.79;100.00
62418;BME280;48456;54.242;10.280;2023-07-29T01:41:21;100454.94;;;14.85;100.00
62418;BME280;48456;54.242;10.280;2023-07-29T01:43:47;100456.50;;;14.92;100.00
62418;BME280;48456;54.242;10.280;2023-07-29T01:46:14;100459.13;;;14.94;100.00
62418;BME280;48456;54.242;10.280;2023-07-29T01:48:41;100459.09;;;14.96;100.00
62418;BME280;48456;54.242;10.280;2023-07-29T01:51:07;100451.91;;;14.98;100.00
62418;BME280;48456;54.242;10.280;2023-07-29T01:53:35;100454.59;;;14.98;100.00
62418;BME280;48456;54.242;10.280;2023-07-29T01:56:01;100444.84;;;14.97;100.00
62418;BME280;48456;54.242;10.280;2023-07-29T01:58:28;100445.78;;;14.96;100.00
62418;BME280;48456;54.242;10.280;2023-07-29T02:00:54;100441.47;;;14.91;100.00
62418;BME280;48456;54.242;10.280;2023-07-29T02:03:21;100437.94;;;14.89;100.00
62418;BME280;48456;54.242;10.280;2023-07-29T02:05:47;100433.47;;;14.91;100.00
62418;BME280;48456;54.242;10.280;2023-07-29T02:08:13;100421.94;;;14.91;100.00
62418;BME280;48456;54.242;10.280;2023-07-29T02:10:40;100427.22;;;14.92;100.00
62418;BME280;48456;54.242;10.280;2023-07-29T02:13:07;100433.28;;;14.98;100.00
62418;BME280;48456;54.242;10.280;2023-07-29T02:15:33;100435.03;;;14.99;100.00
62418;BME280;48456;54.242;10.280;2023-07-29T02:18:00;100439.50;;;14.98;100.00
62418;BME280;48456;54.242;10.280;2023-07-29T02:20:28;100440.31;;;15.00;100.00
62418;BME280;48456;54.242;10.280;2023-07-29T02:22:54;100444.63;;;15.04;100.00
62418;BME280;48456;54.242;10.280;2023-07-29T02:25:20;100434.84;;;15.05;100.00
62418;BME280;48456;54.242;10.280;2023-07-29T02:27:47;100436.69;;;15.03;100.00
62418;BME280;48456;54.242;10.280;2023-07-29T02:30:13;100435.03;;;14.99;100.00
62418;BME280;48456;54.242;10.280;2023-07-29T02:32:40;100426.22;;;14.97;100.00
62418;BME280;48456;54.242;10.280;2023-07-29T02:35:06;100431.53;;;14.97;100.00
62418;BME280;48456;54.242;10.280;2023-07-29T02:37:33;100419.97;;;14.98;100.00
62418;BME280;48456;54.242;10.280;2023-07-29T02:39:59;100420.84;;;14.98;100.00
62418;BME280;48456;54.242;10.280;2023-07-29T02:42:26;100416.38;;;14.99;100.00
62418;BME280;48456;54.242;10.280;2023-07-29T02:44:52;100414.63;;;14.98;100.00
62418;BME280;48456;54.242;10.280;2023-07-29T02:47:19;100409.28;;;14.99;100.00
62418;BME280;48456;54.242;10.280;2023-07-29T02:49:45;100420.72;;;15.01;100.00
62418;BME280;48456;54.242;10.280;2023-07-29T02:52:12;100414.50;;;15.02;100.00
62418;BME280;48456;54.242;10.280;2023-07-29T02:54:38;100402.97;;;15.02;100.00
62418;BME280;48456;54.242;10.280;2023-07-29T02:57:05;100396.91;;;14.97;100.00
62418;BME280;48456;54.242;10.280;2023-07-29T02:59:31;100404.09;;;14.93;100.00
62418;BME280;48456;54.242;10.280;2023-07-29T03:01:57;100398.97;;;14.87;100.00
62418;BME280;48456;54.242;10.280;2023-07-29T03:04:24;100403.38;;;14.88;100.00
62418;BME280;48456;54.242;10.280;2023-07-29T03:06:50;100410.41;;;14.90;100.00
62418;BME280;48456;54.242;10.280;2023-07-29T03:09:16;100395.22;;;14.94;100.00
62418;BME280;48456;54.242;10.280;2023-07-29T03:11:43;100396.88;;;14.98;100.00
62418;BME280;48456;54.242;10.280;2023-07-29T03:14:09;100406.66;;;14.98;100.00
62418;BME280;48456;54.242;10.280;2023-07-29T03:16:35;100408.31;;;15.02;100.00
62418;BME280;48456;54.242;10.280;2023-07-29T03:19:02;100395.91;;;15.01;100.00
62418;BME280;48456;54.242;10.280;2023-07-29T03:21:28;100395.84;;;15.04;100.00
62418;BME280;48456;54.242;10.280;2023-07-29T03:23:55;100391.41;;;15.03;100.00
62418;BME280;48456;54.242;10.280;2023-07-29T03:26:21;100409.16;;;15.04;100.00
62418;BME280;48456;54.242;10.280;2023-07-29T03:28:48;100396.69;;;15.04;100.00
62418;BME280;48456;54.242;10.280;2023-07-29T03:31:14;100394.81;;;15.08;100.00
62418;BME280;48456;54.242;10.280;2023-07-29T03:33:40;100404.44;;;15.12;100.00
62418;BME280;48456;54.242;10.280;2023-07-29T03:36:07;100398.25;;;15.12;100.00
62418;BME280;48456;54.242;10.280;2023-07-29T03:38:33;100400.03;;;15.11;100.00
62418;BME280;48456;54.242;10.280;2023-07-29T03:41:01;100404.44;;;15.12;100.00
62418;BME280;48456;54.242;10.280;2023-07-29T03:43:29;100410.59;;;15.14;100.00
62418;BME280;48456;54.242;10.280;2023-07-29T03:45:55;100412.34;;;15.15;100.00
62418;BME280;48456;54.242;10.280;2023-07-29T03:48:22;100409.56;;;15.20;100.00
62418;BME280;48456;54.242;10.280;2023-07-29T03:50:48;100415.75;;;15.20;100.00
62418;BME280;48456;54.242;10.280;2023-07-29T03:53:14;100414.94;;;15.18;100.00
62418;BME280;48456;54.242;10.280;2023-07-29T03:55:41;100418.53;;;15.17;100.00
62418;BME280;48456;54.242;10.280;2023-07-29T03:58:07;100412.31;;;15.17;100.00
62418;BME280;48456;54.242;10.280;2023-07-29T04:00:34;100410.53;;;15.17;100.00
62418;BME280;48456;54.242;10.280;2023-07-29T04:03:00;100396.31;;;15.17;100.00
62418;BME280;48456;54.242;10.280;2023-07-29T04:05:27;100393.56;;;15.20;100.00
62418;BME280;48456;54.242;10.280;2023-07-29T04:07:53;100393.53;;;15.22;100.00
62418;BME280;48456;54.242;10.280;2023-07-29T04:10:20;100387.28;;;15.23;100.00
62418;BME280;48456;54.242;10.280;2023-07-29T04:12:46;100397.88;;;15.24;100.00
62418;BME280;48456;54.242;10.280;2023-07-29T04:15:13;100386.34;;;15.24;100.00
62418;BME280;48456;54.242;10.280;2023-07-29T04:17:39;100380.94;;;15.27;100.00
62418;BME280;48456;54.242;10.280;2023-07-29T04:20:05;100377.34;;;15.28;100.00
62418;BME280;48456;54.242;10.280;2023-07-29T04:22:32;100391.50;;;15.30;100.00
62418;BME280;48456;54.242;10.280;2023-07-29T04:24:59;100379.06;;;15.29;100.00
62418;BME280;48456;54.242;10.280;2023-07-29T04:27:28;100379.91;;;15.31;100.00
62418;BME280;48456;54.242;10.280;2023-07-29T04:29:54;100382.41;;;15.36;100.00
62418;BME280;48456;54.242;10.280;2023-07-29T04:32:21;100389.41;;;15.40;100.00
62418;BME280;48456;54.242;10.280;2023-07-29T04:34:47;100391.13;;;15.42;100.00
62418;BME280;48456;54.242;10.280;2023-07-29T04:37:13;100416.75;;;15.46;100.00
62418;BME280;48456;54.242;10.280;2023-07-29T04:39:40;100446.94;;;15.47;100.00
62418;BME280;48456;54.242;10.280;2023-07-29T04:42:06;100440.63;;;15.50;100.00
62418;BME280;48456;54.242;10.280;2023-07-29T04:44:33;100434.44;;;15.49;100.00
62418;BME280;48456;54.242;10.280;2023-07-29T04:46:59;100422.31;;;15.39;100.00
62418;BME280;48456;54.242;10.280;2023-07-29T04:49:25;100398.63;;;15.29;100.00
62418;BME280;48456;54.242;10.280;2023-07-29T04:51:52;100398.66;;;15.28;100.00
62418;BME280;48456;54.242;10.280;2023-07-29T04:54:18;100396.91;;;15.27;100.00
62418;BME280;48456;54.242;10.280;2023-07-29T04:56:47;100396.97;;;15.25;100.00
62418;BME280;48456;54.242;10.280;2023-07-29T04:59:13;100392.47;;;15.27;100.00
62418;BME280;48456;54.242;10.280;2023-07-29T05:01:40;100390.56;;;15.31;100.00
62418;BME280;48456;54.242;10.280;2023-07-29T05:04:08;100391.44;;;15.31;100.00
62418;BME280;48456;54.242;10.280;2023-07-29T05:06:35;100393.09;;;15.36;100.00
62418;BME280;48456;54.242;10.280;2023-07-29T05:09:14;100394.72;;;15.40;100.00
62418;BME280;48456;54.242;10.280;2023-07-29T05:11:42;100395.56;;;15.42;100.00
62418;BME280;48456;54.242;10.280;2023-07-29T05:14:11;100398.16;;;15.45;100.00
62418;BME280;48456;54.242;10.280;2023-07-29T05:16:37;100405.84;;;15.54;100.00
62418;BME280;48456;54.242;10.280;2023-07-29T05:19:04;100401.19;;;15.61;100.00
62418;BME280;48456;54.242;10.280;2023-07-29T05:21:30;100401.91;;;15.66;100.00
62418;BME280;48456;54.242;10.280;2023-07-29T05:23:57;100397.22;;;15.75;100.00
62418;BME280;48456;54.242;10.280;2023-07-29T05:26:23;100395.06;;;15.86;100.00
62418;BME280;48456;54.242;10.280;2023-07-29T05:28:49;100397.47;;;15.95;100.00
62418;BME280;48456;54.242;10.280;2023-07-29T05:31:16;100396.34;;;16.03;100.00
62418;BME280;48456;54.242;10.280;2023-07-29T05:33:42;100383.72;;;16.08;100.00
62418;BME280;48456;54.242;10.280;2023-07-29T05:36:09;100386.22;;;16.13;100.00
62418;BME280;48456;54.242;10.280;2023-07-29T05:38:35;100377.13;;;16.18;100.00
62418;BME280;48456;54.242;10.280;2023-07-29T05:41:03;100386.72;;;16.24;100.00
62418;BME280;48456;54.242;10.280;2023-07-29T05:43:30;100378.50;;;16.30;100.00
62418;BME280;48456;54.242;10.280;2023-07-29T05:45:56;100377.28;;;16.39;100.00
62418;BME280;48456;54.242;10.280;2023-07-29T05:48:22;100373.97;;;16.32;100.00
62418;BME280;48456;54.242;10.280;2023-07-29T05:50:49;100376.53;;;16.35;100.00
62418;BME280;48456;54.242;10.280;2023-07-29T05:53:16;100371.09;;;16.39;100.00
62418;BME280;48456;54.242;10.280;2023-07-29T05:55:42;100372.66;;;16.44;100.00
62418;BME280;48456;54.242;10.280;2023-07-29T05:58:09;100371.63;;;16.48;100.00
62418;BME280;48456;54.242;10.280;2023-07-29T06:00:35;100378.81;;;16.46;100.00
62418;BME280;48456;54.242;10.280;2023-07-29T06:03:02;100377.09;;;16.45;100.00
62418;BME280;48456;54.242;10.280;2023-07-29T06:05:28;100367.88;;;16.54;100.00
62418;BME280;48456;54.242;10.280;2023-07-29T06:07:55;100374.03;;;16.56;100.00
62418;BME280;48456;54.242;10.280;2023-07-29T06:10:21;100376.47;;;16.62;100.00
62418;BME280;48456;54.242;10.280;2023-07-29T06:12:48;100373.53;;;16.70;100.00
62418;BME280;48456;54.242;10.280;2023-07-29T06:15:14;100377.53;;;16.82;100.00
62418;BME280;48456;54.242;10.280;2023-07-29T06:17:41;100370.97;;;16.91;100.00
62418;BME280;48456;54.242;10.280;2023-07-29T06:20:07;100373.31;;;17.00;100.00
62418;BME280;48456;54.242;10.280;2023-07-29T06:22:34;100369.38;;;17.11;100.00
62418;BME280;48456;54.242;10.280;2023-07-29T06:25:00;100370.00;;;17.18;100.00
62418;BME280;48456;54.242;10.280;2023-07-29T06:27:27;100367.06;;;17.25;100.00
62418;BME280;48456;54.242;10.280;2023-07-29T06:29:53;100373.03;;;17.32;100.00
62418;BME280;48456;54.242;10.280;2023-07-29T06:32:20;100374.03;;;17.30;100.00
62418;BME280;48456;54.242;10.280;2023-07-29T06:34:46;100375.59;;;17.34;100.00
62418;BME280;48456;54.242;10.280;2023-07-29T06:37:12;100371.72;;;17.43;100.00
62418;BME280;48456;54.242;10.280;2023-07-29T06:39:39;100371.59;;;17.46;100.00
62418;BME280;48456;54.242;10.280;2023-07-29T06:42:05;100366.19;;;17.47;100.00
62418;BME280;48456;54.242;10.280;2023-07-29T06:44:32;100372.09;;;17.56;100.00
62418;BME280;48456;54.242;10.280;2023-07-29T06:46:58;100359.53;;;17.58;100.00
62418;BME280;48456;54.242;10.280;2023-07-29T06:49:25;100364.53;;;17.65;100.00
62418;BME280;48456;54.242;10.280;2023-07-29T06:51:51;100368.38;;;17.60;100.00
62418;BME280;48456;54.242;10.280;2023-07-29T06:54:17;100369.44;;;17.56;100.00
62418;BME280;48456;54.242;10.280;2023-07-29T06:56:44;100362.25;;;17.56;100.00
62418;BME280;48456;54.242;10.280;2023-07-29T06:59:10;100362.19;;;17.58;100.00
62418;BME280;48456;54.242;10.280;2023-07-29T07:01:36;100355.06;;;17.58;100.00
62418;BME280;48456;54.242;10.280;2023-07-29T07:04:05;100352.88;;;17.68;100.00
62418;BME280;48456;54.242;10.280;2023-07-29T07:06:31;100357.63;;;17.82;100.00
62418;BME280;48456;54.242;10.280;2023-07-29T07:08:57;100366.81;;;17.97;100.00
62418;BME280;48456;54.242;10.280;2023-07-29T07:11:24;100366.31;;;18.10;100.00
62418;BME280;48456;54.242;10.280;2023-07-29T07:13:50;100362.28;;;18.22;100.00
62418;BME280;48456;54.242;10.280;2023-07-29T07:16:17;100360.38;;;18.24;100.00
62418;BME280;48456;54.242;10.280;2023-07-29T07:18:43;100364.06;;;18.21;100.00
62418;BME280;48456;54.242;10.280;2023-07-29T07:21:09;100357.63;;;18.25;100.00
62418;BME280;48456;54.242;10.280;2023-07-29T07:23:36;100349.59;;;18.25;100.00
62418;BME280;48456;54.242;10.280;2023-07-29T07:26:03;100348.47;;;18.31;100.00
62418;BME280;48456;54.242;10.280;2023-07-29T07:28:29;100352.28;;;18.46;100.00
62418;BME280;48456;54.242;10.280;2023-07-29T07:30:55;100350.00;;;18.57;100.00
62418;BME280;48456;54.242;10.280;2023-07-29T07:33:22;100344.72;;;18.56;100.00
62418;BME280;48456;54.242;10.280;2023-07-29T07:35:48;100333.72;;;18.41;100.00
62418;BME280;48456;54.242;10.280;2023-07-29T07:38:15;100340.97;;;18.39;100.00
62418;BME280;48456;54.242;10.280;2023-07-29T07:40:41;100331.88;;;18.43;100.00
62418;BME280;48456;54.242;10.280;2023-07-29T07:43:07;100332.66;;;18.46;100.00
62418;BME280;48456;54.242;10.280;2023-07-29T07:45:34;100339.47;;;18.53;100.00
62418;BME280;48456;54.242;10.280;2023-07-29T07:48:00;100329.56;;;18.74;100.00
62418;BME280;48456;54.242;10.280;2023-07-29T07:50:30;100337.63;;;18.74;100.00
62418;BME280;48456;54.242;10.280;2023-07-29T07:53:00;100335.63;;;18.79;100.00
62418;BME280;48456;54.242;10.280;2023-07-29T07:55:26;100336.63;;;18.77;100.00
62418;BME280;48456;54.242;10.280;2023-07-29T07:57:52;100336.84;;;18.72;100.00
62418;BME280;48456;54.242;10.280;2023-07-29T08:00:19;100335.03;;;18.73;100.00
62418;BME280;48456;54.242;10.280;2023-07-29T08:02:46;100333.28;;;18.72;100.00
62418;BME280;48456;54.242;10.280;2023-07-29T08:05:12;100333.44;;;18.68;100.00
62418;BME280;48456;54.242;10.280;2023-07-29T08:07:38;100337.03;;;18.67;100.00
62418;BME280;48456;54.242;10.280;2023-07-29T08:10:05;100338.56;;;18.73;100.00
62418;BME280;48456;54.242;10.280;2023-07-29T08:12:33;100337.78;;;18.71;100.00
62418;BME280;48456;54.242;10.280;2023-07-29T08:14:59;100341.53;;;18.67;100.00
62418;BME280;48456;54.242;10.280;2023-07-29T08:17:25;100341.09;;;18.76;100.00
62418;BME280;48456;54.242;10.280;2023-07-29T08:19:52;100336.75;;;18.74;100.00
62418;BME280;48456;54.242;10.280;2023-07-29T08:22:18;100339.72;;;18.67;100.00
62418;BME280;48456;54.242;10.280;2023-07-29T08:24:45;100341.25;;;18.73;100.00
62418;BME280;48456;54.242;10.280;2023-07-29T08:27:11;100346.28;;;18.81;100.00
62418;BME280;48456;54.242;10.280;2023-07-29T08:29:37;100344.16;;;18.88;100.00
62418;BME280;48456;54.242;10.280;2023-07-29T08:32:04;100340.69;;;18.86;100.00
62418;BME280;48456;54.242;10.280;2023-07-29T08:34:30;100341.19;;;18.75;100.00
62418;BME280;48456;54.242;10.280;2023-07-29T08:36:56;100348.63;;;18.68;100.00
62418;BME280;48456;54.242;10.280;2023-07-29T08:39:23;100335.44;;;18.63;100.00
62418;BME280;48456;54.242;10.280;2023-07-29T08:41:52;100331.53;;;18.70;100.00
62418;BME280;48456;54.242;10.280;2023-07-29T08:44:24;100335.44;;;18.82;100.00
62418;BME280;48456;54.242;10.280;2023-07-29T08:46:52;100340.41;;;18.92;100.00
62418;BME280;48456;54.242;10.280;2023-07-29T08:49:20;100339.97;;;19.01;100.00
62418;BME280;48456;54.242;10.280;2023-07-29T08:51:49;100344.53;;;19.18;100.00
62418;BME280;48456;54.242;10.280;2023-07-29T08:54:16;100336.34;;;19.21;100.00
62418;BME280;48456;54.242;10.280;2023-07-29T08:56:42;100331.63;;;19.27;100.00
62418;BME280;48456;54.242;10.280;2023-07-29T08:59:09;100327.22;;;19.26;100.00
62418;BME280;48456;54.242;10.280;2023-07-29T09:01:40;100331.34;;;19.33;100.00
62418;BME280;48456;54.242;10.280;2023-07-29T09:04:07;100328.84;;;19.47;100.00
62418;BME280;48456;54.242;10.280;2023-07-29T09:06:34;100322.72;;;19.63;100.00
62418;BME280;48456;54.242;10.280;2023-07-29T09:09:02;100314.63;;;19.82;100.00
62418;BME280;48456;54.242;10.280;2023-07-29T09:11:28;100319.53;;;20.09;100.00
62418;BME280;48456;54.242;10.280;2023-07-29T09:13:55;100316.53;;;20.16;100.00
62418;BME280;48456;54.242;10.280;2023-07-29T09:16:21;100321.38;;;20.09;100.00
62418;BME280;48456;54.242;10.280;2023-07-29T09:18:49;100307.47;;;20.01;100.00
62418;BME280;48456;54.242;10.280;2023-07-29T09:21:17;100306.50;;;19.84;100.00
62418;BME280;48456;54.242;10.280;2023-07-29T09:23:44;100314.00;;;19.77;100.00
62418;BME280;48456;54.242;10.280;2023-07-29T09:26:10;100316.97;;;19.71;100.00
62418;BME280;48456;54.242;10.280;2023-07-29T09:28:37;100321.72;;;19.66;100.00
62418;BME280;48456;54.242;10.280;2023-07-29T09:31:04;100312.69;;;19.49;100.00
62418;BME280;48456;54.242;10.280;2023-07-29T09:33:35;100305.38;;;19.33;100.00
62418;BME280;48456;54.242;10.280;2023-07-29T09:36:08;100296.16;;;19.21;100.00
62418;BME280;48456;54.242;10.280;2023-07-29T09:38:35;100299.47;;;19.27;100.00
62418;BME280;48456;54.242;10.280;2023-07-29T09:41:02;100303.19;;;19.42;100.00
62418;BME280;48456;54.242;10.280;2023-07-29T09:43:29;100297.16;;;19.56;100.00
62418;BME280;48456;54.242;10.280;2023-07-29T09:45:59;100301.97;;;19.67;100.00
62418;BME280;48456;54.242;10.280;2023-07-29T09:48:26;100298.81;;;19.76;100.00
62418;BME280;48456;54.242;10.280;2023-07-29T09:50:52;100299.53;;;19.97;100.00
62418;BME280;48456;54.242;10.280;2023-07-29T09:53:18;100298.59;;;20.16;100.00
62418;BME280;48456;54.242;10.280;2023-07-29T09:55:46;100307.06;;;20.42;100.00
62418;BME280;48456;54.242;10.280;2023-07-29T09:58:12;100296.06;;;20.31;100.00
62418;BME280;48456;54.242;10.280;2023-07-29T10:00:39;100295.44;;;20.08;100.00
62418;BME280;48456;54.242;10.280;2023-07-29T10:03:06;100292.59;;;20.11;100.00
62418;BME280;48456;54.242;10.280;2023-07-29T10:05:32;100289.84;;;19.95;100.00
62418;BME280;48456;54.242;10.280;2023-07-29T10:08:00;100296.41;;;20.07;100.00
62418;BME280;48456;54.242;10.280;2023-07-29T10:10:27;100293.69;;;20.24;100.00
62418;BME280;48456;54.242;10.280;2023-07-29T10:12:54;100292.53;;;20.46;100.00
62418;BME280;48456;54.242;10.280;2023-07-29T10:15:21;100285.81;;;20.55;100.00
62418;BME280;48456;54.242;10.280;2023-07-29T10:17:47;100277.66;;;20.57;100.00
62418;BME280;48456;54.242;10.280;2023-07-29T10:20:15;100273.34;;;20.70;100.00
62418;BME280;48456;54.242;10.280;2023-07-29T10:22:43;100270.97;;;20.98;100.00
62418;BME280;48456;54.242;10.280;2023-07-29T10:25:17;100266.69;;;21.10;100.00
62418;BME280;48456;54.242;10.280;2023-07-29T10:30:11;100268.72;;;21.53;100.00
62418;BME280;48456;54.242;10.280;2023-07-29T10:32:38;100275.00;;;21.68;100.00
62418;BME280;48456;54.242;10.280;2023-07-29T10:35:04;100262.97;;;21.59;100.00
62418;BME280;48456;54.242;10.280;2023-07-29T10:37:31;100262.00;;;21.29;100.00
62418;BME280;48456;54.242;10.280;2023-07-29T10:39:57;100262.00;;;21.29;100.00
62418;BME280;48456;54.242;10.280;2023-07-29T10:42:24;100264.19;;;21.07;100.00
62418;BME280;48456;54.242;10.280;2023-07-29T10:44:51;100269.72;;;20.87;100.00
62418;BME280;48456;54.242;10.280;2023-07-29T10:47:21;100263.50;;;20.37;100.00
62418;BME280;48456;54.242;10.280;2023-07-29T10:49:57;100261.53;;;20.23;100.00
62418;BME280;48456;54.242;10.280;2023-07-29T10:52:28;100257.78;;;20.09;100.00
62418;BME280;48456;54.242;10.280;2023-07-29T10:54:55;100262.63;;;20.03;100.00
62418;BME280;48456;54.242;10.280;2023-07-29T10:59:57;100249.53;;;20.30;100.00
62418;BME280;48456;54.242;10.280;2023-07-29T11:02:36;100262.13;;;20.46;100.00
62418;BME280;48456;54.242;10.280;2023-07-29T11:05:07;100255.16;;;21.24;100.00
62418;BME280;48456;54.242;10.280;2023-07-29T11:10:29;100238.75;;;23.60;100.00
62418;BME280;48456;54.242;10.280;2023-07-29T11:13:08;100239.47;;;24.29;100.00
62418;BME280;48456;54.242;10.280;2023-07-29T11:15:36;100247.66;;;23.88;100.00
62418;BME280;48456;54.242;10.280;2023-07-29T11:18:02;100233.59;;;24.09;100.00
62418;BME280;48456;54.242;10.280;2023-07-29T11:20:30;100232.56;;;24.11;100.00
62418;BME280;48456;54.242;10.280;2023-07-29T11:22:57;100231.78;;;24.09;100.00
62418;BME280;48456;54.242;10.280;2023-07-29T11:25:24;100227.88;;;23.87;100.00
62418;BME280;48456;54.242;10.280;2023-07-29T11:27:52;100231.69;;;23.17;100.00
62418;BME280;48456;54.242;10.280;2023-07-29T11:30:18;100232.88;;;23.13;100.00
62418;BME280;48456;54.242;10.280;2023-07-29T11:32:45;100236.47;;;22.56;100.00
62418;BME280;48456;54.242;10.280;2023-07-29T11:35:13;100231.44;;;21.61;100.00
62418;BME280;48456;54.242;10.280;2023-07-29T11:37:41;100236.44;;;21.06;100.00
62418;BME280;48456;54.242;10.280;2023-07-29T11:40:08;100232.50;;;20.63;100.00
62418;BME280;48456;54.242;10.280;2023-07-29T11:42:37;100230.66;;;20.64;100.00
62418;BME280;48456;54.242;10.280;2023-07-29T11:45:04;100221.91;;;21.55;100.00
62418;BME280;48456;54.242;10.280;2023-07-29T11:47:33;100218.84;;;22.65;100.00
62418;BME280;48456;54.242;10.280;2023-07-29T11:50:07;100216.13;;;24.14;100.00
62418;BME280;48456;54.242;10.280;2023-07-29T11:52:35;100220.00;;;25.47;100.00
62418;BME280;48456;54.242;10.280;2023-07-29T11:55:03;100211.81;;;26.65;100.00
62418;BME280;48456;54.242;10.280;2023-07-29T11:57:30;100216.31;;;27.31;100.00
62418;BME280;48456;54.242;10.280;2023-07-29T11:59:56;100215.81;;;28.01;100.00
62418;BME280;48456;54.242;10.280;2023-07-29T12:02:23;100216.25;;;28.07;100.00
62418;BME280;48456;54.242;10.280;2023-07-29T12:04:50;100216.63;;;28.54;100.00
62418;BME280;48456;54.242;10.280;2023-07-29T12:07:17;100222.47;;;28.19;100.00
62418;BME280;48456;54.242;10.280;2023-07-29T12:09:45;100219.69;;;28.09;100.00
62418;BME280;48456;54.242;10.280;2023-07-29T12:12:11;100211.31;;;28.53;100.00
62418;BME280;48456;54.242;10.280;2023-07-29T12:14:38;100217.50;;;28.65;100.00
62418;BME280;48456;54.242;10.280;2023-07-29T12:17:05;100226.50;;;28.56;100.00
62418;BME280;48456;54.242;10.280;2023-07-29T12:19:33;100221.19;;;27.92;100.00
62418;BME280;48456;54.242;10.280;2023-07-29T12:22:04;100221.94;;;27.72;100.00
62418;BME280;48456;54.242;10.280;2023-07-29T12:24:31;100217.97;;;28.08;100.00
62418;BME280;48456;54.242;10.280;2023-07-29T12:26:57;100223.72;;;27.83;100.00
62418;BME280;48456;54.242;10.280;2023-07-29T12:29:24;100218.03;;;27.86;100.00
62418;BME280;48456;54.242;10.280;2023-07-29T12:32:00;100227.78;;;27.35;100.00
62418;BME280;48456;54.242;10.280;2023-07-29T12:34:28;100225.25;;;26.43;100.00
62418;BME280;48456;54.242;10.280;2023-07-29T12:36:55;100219.63;;;25.76;100.00
62418;BME280;48456;54.242;10.280;2023-07-29T12:39:23;100230.03;;;25.22;100.00
62418;BME280;48456;54.242;10.280;2023-07-29T12:41:51;100226.47;;;24.97;100.00
62418;BME280;48456;54.242;10.280;2023-07-29T12:44:17;100230.34;;;24.56;100.00
62418;BME280;48456;54.242;10.280;2023-07-29T12:46:44;100231.91;;;24.21;100.00